ジッダ の空港の天気 - METARとTAF

キング・アブドゥルアズィーズ国際空港(ジッダ) ( OEJN / JED ) - サウジアラビア ジッダ
飛行場実況気象(Metar)
観測時間05/28 13:00 AST (05/28 10:00 UTC)
風向・風速西 5m/s
視程10km以上
天気現象
なし
気温37℃
湿度42%
気圧1005hPa
METAROEJN 281000Z 28010KT CAVOK 37/22 Q1005 NOSIG
過去の天気等 Google飛行場航空写真 Wunderground天気予報

過去48時間のMETAR

飛行場予報(TAF)
発表時間: 5/28 08:00 AST (5/28 05:00 UTC)
予報対象時間: 28日9時 AST ~ 29日15時 AST
風向・風速北西 6m/s
視程10km以上
なし
28日21時 AST ~ 28日23時 AST に徐々に
風向・風速不定 2m/s
29日9時 AST ~ 29日11時 AST に徐々に
風向・風速北西 6m/s
TAF OEJN 280500Z 2806/2912 32012KT CAVOK
BECMG 2818/2820 VRB03KT
BECMG 2906/2908 32012KT